»·PEaware :: N315TS KLAS-KMRY

N315TS :: KLAS-KMRY

FLIGHT INFORMATION

Flight Status: Arrived
Operator: Privately registered:
United States
More flights under this callsign
Pilot: Anonymous 1597 (1597)
Aircraft: BOEING 737-800
(B738)
More flights by this aircraft type
Origin: KLAS McCarran Intl
United States
Destination: KMRY Monterey Peninsula
United States
More flights between these airports :: More routes between these airports
Route: BOACH8 HEC PMD MAKRS BSR
File this flight plan on PilotEdge
Remarks:
Altitude:
(Current/Filed)
34,000ft
Speed:
(Current/Filed)
475kts
Departed: 14-Sep-20 03:44 PM
Arrived: 14-Sep-20 04:58 PM
Distance/Time
Traveled:
325nm/1:14
Distance/Time
To Go:
Arrived

Flight Plot

Page will automatically refresh every two minutes.

Flight plan parsing failed; only flown route is shown


Map Options




Map Legend


Flown Route
Filed Route
Departure Airport
Arrival Airport
Navaid (VOR, NDB)
Fix

Horizontal Profiles

Position Reports

Time Latitude Longitude Heading Altitude Ground
Speed
14-Sep-20 15:23 36.081153 -115.170346 113 2176ft 0kts
14-Sep-20 15:24 36.081153 -115.170346 113 2176ft 0kts
14-Sep-20 15:25 36.081153 -115.170346 113 2176ft 0kts
14-Sep-20 15:26 36.081153 -115.170346 113 2176ft 0kts
14-Sep-20 15:27 36.081153 -115.170346 113 2176ft 0kts
14-Sep-20 15:28 36.081153 -115.170346 113 2176ft 0kts
14-Sep-20 15:29 36.081153 -115.170346 113 2176ft 0kts
14-Sep-20 15:30 36.081153 -115.170346 113 2176ft 0kts
14-Sep-20 15:31 36.081153 -115.170346 113 2176ft 0kts
14-Sep-20 15:32 36.081153 -115.170346 113 2176ft 0kts
14-Sep-20 15:33 36.081153 -115.170346 113 2176ft 0kts
14-Sep-20 15:35 36.081153 -115.170346 113 2176ft 0kts
14-Sep-20 15:36 36.081153 -115.170346 113 2176ft 0kts
14-Sep-20 15:37 36.081153 -115.170346 113 2176ft 0kts
14-Sep-20 15:38 36.081153 -115.170346 112 2176ft 0kts
14-Sep-20 15:39 36.081153 -115.170346 113 2176ft 0kts
14-Sep-20 15:40 36.082835 -115.168204 117 2167ft 6kts
14-Sep-20 15:41 36.087301 -115.164980 28 2147ft 29kts
14-Sep-20 15:42 36.095615 -115.160220 27 2108ft 31kts
14-Sep-20 15:43 36.099714 -115.156761 123 2091ft 12kts
14-Sep-20 15:44 36.076537 -115.170460 205 2641ft 183kts
14-Sep-20 15:45 36.027673 -115.198091 206 5511ft 201kts
14-Sep-20 15:46 35.991143 -115.257198 240 7211ft 268kts
14-Sep-20 15:47 35.924771 -115.307308 182 8158ft 337kts
14-Sep-20 15:48 35.829850 -115.312259 174 11627ft 349kts
14-Sep-20 15:49 35.732949 -115.300935 175 15058ft 352kts
14-Sep-20 15:50 35.640287 -115.345541 224 17190ft 386kts
14-Sep-20 15:50 35.577206 -115.429204 225 18968ft 403kts
14-Sep-20 15:51 35.501098 -115.528612 226 21622ft 403kts
14-Sep-20 15:53 35.413640 -115.650083 228 24085ft 414kts
14-Sep-20 15:54 35.339011 -115.757682 229 26737ft 407kts
14-Sep-20 15:54 35.276720 -115.842631 228 28968ft 398kts
14-Sep-20 15:55 35.199905 -115.938483 228 31019ft 397kts
14-Sep-20 15:56 35.123670 -116.036490 230 32935ft 395kts
14-Sep-20 15:57 35.048764 -116.134498 231 34159ft 403kts
14-Sep-20 15:58 34.970303 -116.237695 231 34223ft 427kts
14-Sep-20 15:59 34.887448 -116.345453 231 34083ft 436kts
14-Sep-20 16:00 34.805037 -116.453883 231 34044ft 438kts
14-Sep-20 16:01 34.716635 -116.556277 222 34048ft 443kts
14-Sep-20 16:02 34.677217 -116.687106 268 34045ft 425kts
14-Sep-20 16:03 34.672234 -116.830762 268 34027ft 423kts
14-Sep-20 16:04 34.667478 -116.972568 268 34050ft 419kts
14-Sep-20 16:05 34.662798 -117.112887 268 34111ft 414kts
14-Sep-20 16:06 34.658172 -117.252347 268 34117ft 412kts
14-Sep-20 16:07 34.653573 -117.391641 268 34115ft 412kts
14-Sep-20 16:08 34.649007 -117.530468 268 34111ft 412kts
14-Sep-20 16:09 34.644442 -117.669496 267 34106ft 413kts
14-Sep-20 16:10 34.639761 -117.809099 267 34083ft 414kts
14-Sep-20 16:11 34.635120 -117.949013 267 34086ft 414kts
14-Sep-20 16:12 34.654668 -118.085232 290 34094ft 418kts
14-Sep-20 16:13 34.705947 -118.212212 295 34098ft 420kts
14-Sep-20 16:14 34.762224 -118.336350 296 34092ft 420kts
14-Sep-20 16:15 34.813825 -118.447186 296 34121ft 420kts
14-Sep-20 16:16 34.866424 -118.559273 297 34186ft 420kts
14-Sep-20 16:17 34.924431 -118.682861 296 34217ft 422kts
14-Sep-20 16:18 34.982820 -118.807663 297 34219ft 426kts
14-Sep-20 16:19 35.041827 -118.934064 297 34101ft 432kts
14-Sep-20 16:20 35.101171 -119.061560 296 33977ft 435kts
14-Sep-20 16:21 35.160410 -119.189295 296 33975ft 435kts
14-Sep-20 16:22 35.219556 -119.317312 296 33980ft 435kts
14-Sep-20 16:23 35.278972 -119.446389 296 33975ft 435kts
14-Sep-20 16:24 35.338145 -119.575405 296 33976ft 435kts
14-Sep-20 16:25 35.397350 -119.705011 296 33974ft 435kts
14-Sep-20 16:26 35.456025 -119.834001 296 33996ft 434kts
14-Sep-20 16:27 35.514913 -119.963870 296 34016ft 434kts
14-Sep-20 16:28 35.572064 -120.090292 295 33410ft 417kts
14-Sep-20 16:29 35.626463 -120.211630 295 31882ft 407kts
14-Sep-20 16:30 35.681986 -120.335782 294 30102ft 418kts
14-Sep-20 16:31 35.731567 -120.465600 291 28098ft 426kts
14-Sep-20 16:32 35.782784 -120.599038 292 26025ft 438kts
14-Sep-20 16:33 35.834951 -120.733663 292 23745ft 429kts
14-Sep-20 16:34 35.885659 -120.864670 292 21567ft 423kts
14-Sep-20 16:35 35.935621 -120.994296 292 19349ft 413kts
14-Sep-20 16:36 35.985020 -121.119598 294 17114ft 400kts
14-Sep-20 16:37 36.034274 -121.240404 294 14869ft 385kts
14-Sep-20 16:38 36.077668 -121.352178 292 12771ft 330kts
14-Sep-20 16:39 36.112000 -121.448749 291 10887ft 291kts
14-Sep-20 16:40 36.145134 -121.538549 293 10003ft 277kts
14-Sep-20 16:41 36.178624 -121.625424 293 10000ft 279kts
14-Sep-20 16:42 36.219851 -121.707444 302 10004ft 281kts
14-Sep-20 16:43 36.265188 -121.786402 302 10006ft 281kts
14-Sep-20 16:44 36.310621 -121.865510 302 10005ft 281kts
14-Sep-20 16:45 36.356236 -121.944936 302 9174ft 282kts
14-Sep-20 16:46 36.401604 -122.024070 302 7621ft 282kts
14-Sep-20 16:47 36.445315 -122.100672 303 7006ft 261kts
14-Sep-20 16:48 36.486612 -122.172996 303 5950ft 248kts
14-Sep-20 16:49 36.538440 -122.212316 17 4296ft 244kts
14-Sep-20 16:50 36.597656 -122.178469 23 3055ft 222kts
14-Sep-20 16:51 36.645968 -122.145712 57 3000ft 190kts
14-Sep-20 16:52 36.655132 -122.080059 83 2833ft 193kts
14-Sep-20 16:53 36.645278 -122.016274 114 2602ft 189kts
14-Sep-20 16:54 36.625841 -121.959227 113 1979ft 169kts
14-Sep-20 16:55 36.608719 -121.907969 117 1101ft 148kts
14-Sep-20 16:56 36.592560 -121.861201 111 303ft 148kts
14-Sep-20 16:57 36.583579 -121.836130 198 263ft 14kts
14-Sep-20 16:58 36.584738 -121.840579 292 245ft 24kts
14-Sep-20 16:59 36.588356 -121.850911 292 172ft 34kts
14-Sep-20 17:00 36.588972 -121.854560 202 168ft 0kts
14-Sep-20 17:01 36.588972 -121.854560 202 168ft 0kts
14-Sep-20 17:02 36.588972 -121.854560 202 168ft 0kts
14-Sep-20 17:03 36.588972 -121.854560 202 168ft 0kts

Navigation Log

Ident Type
Flight plan parsing failed, navigation log unavailable